Time;durP1;ratioP1;P1;durP2;ratioP2;P2;SDS_P1;SDS_P2;PMS_P1;PMS_P2;Temp;Humidity;BMP_temperature;BMP_pressure;BME280_temperature;BME280_humidity;BME280_pressure;Samples;Min_cycle;Max_cycle;Signal;HPM_P1;HPM_P2
2022/11/26 00:01:23;;;;;;;8.10;2.80;;;;;;;7.26;54.36;100220.97;3145086;28;20113;-64
2022/11/26 00:02:55;;;;;;;9.52;3.28;;;;;;;7.25;54.31;100221.88;3144945;28;20052;-65
2022/11/26 00:04:27;;;;;;;7.30;2.92;;;;;;;7.29;54.23;100227.81;3144213;28;20117;-67
2022/11/26 00:06:00;;;;;;;14.00;3.70;;;;;;;7.28;54.13;100226.97;3144442;28;20445;-66
2022/11/26 00:07:33;;;;;;;4.30;2.40;;;;;;;7.28;54.11;100228.72;3144804;28;20053;-66
2022/11/26 00:09:07;;;;;;;7.00;3.63;;;;;;;7.22;54.08;100214.19;3144354;28;20048;-66
2022/11/26 00:10:39;;;;;;;10.02;2.85;;;;;;;7.27;54.25;100221.81;3144881;28;20049;-66
2022/11/26 00:12:16;;;;;;;4.38;2.60;;;;;;;7.28;53.84;100226.97;3144625;28;20098;-66
2022/11/26 00:13:48;;;;;;;6.15;2.90;;;;;;;7.25;54.04;100227.06;3144321;28;20436;-65
2022/11/26 00:15:22;;;;;;;8.93;2.78;;;;;;;7.22;53.88;100223.69;3144239;28;20052;-65
2022/11/26 00:16:54;;;;;;;5.22;2.47;;;;;;;7.21;53.69;100232.34;3144477;28;20044;-65
2022/11/26 00:18:26;;;;;;;3.78;2.40;;;;;;;7.19;53.64;100237.56;3144511;28;20136;-65
2022/11/26 00:19:57;;;;;;;5.20;2.50;;;;;;;7.16;53.64;100234.19;3144516;28;20044;-66
2022/11/26 00:21:31;;;;;;;3.63;2.00;;;;;;;7.15;53.74;100235.91;3144350;28;20079;-66
2022/11/26 00:23:03;;;;;;;5.68;2.95;;;;;;;7.16;53.75;100234.19;3144353;28;20055;-66
2022/11/26 00:24:35;;;;;;;9.05;2.75;;;;;;;7.16;53.54;100239.34;3144478;28;20465;-66
2022/11/26 00:26:15;;;;;;;5.18;2.20;;;;;;;7.15;53.72;100230.75;3144414;28;20393;-65
2022/11/26 00:27:47;;;;;;;3.90;2.10;;;;;;;7.14;53.52;100234.22;3143943;28;20131;-65
2022/11/26 00:29:19;;;;;;;4.60;2.40;;;;;;;7.14;53.53;100236.81;3144277;28;20502;-65
2022/11/26 00:30:50;;;;;;;4.35;2.20;;;;;;;7.11;53.40;100228.28;3144284;28;20052;-65
2022/11/26 00:32:25;;;;;;;4.38;2.38;;;;;;;7.14;53.36;100243.75;3144296;28;20048;-65
2022/11/26 00:33:56;;;;;;;3.78;2.20;;;;;;;7.12;53.32;100242.91;3144280;28;20110;-65
2022/11/26 00:35:27;;;;;;;5.22;2.75;;;;;;;7.13;53.33;100242.03;3136030;28;20060;-66
2022/11/26 00:37:01;;;;;;;6.25;2.50;;;;;;;7.02;53.28;100222.44;3144750;28;20550;-66
2022/11/26 00:38:33;;;;;;;3.97;2.20;;;;;;;7.08;53.26;100234.38;3144333;28;20048;-68
2022/11/26 00:40:05;;;;;;;6.28;2.30;;;;;;;7.10;53.37;100242.09;3143912;28;20044;-64
2022/11/26 00:41:39;;;;;;;6.15;2.90;;;;;;;6.96;53.01;100217.41;3144322;28;20445;-66
2022/11/26 00:43:12;;;;;;;6.00;2.53;;;;;;;7.04;53.25;100235.34;3143357;28;20049;-66
2022/11/26 00:44:44;;;;;;;4.53;2.70;;;;;;;7.00;53.05;100231.13;3143916;28;20048;-66
2022/11/26 00:46:18;;;;;;;4.93;2.78;;;;;;;7.00;53.08;100238.88;3144180;28;20051;-65
2022/11/26 00:47:50;;;;;;;6.00;2.58;;;;;;;6.98;53.22;100236.34;3144086;28;20133;-65
2022/11/26 00:49:23;;;;;;;6.13;2.78;;;;;;;6.98;53.15;100241.53;3140099;28;20102;-67
2022/11/26 00:50:53;;;;;;;8.40;2.58;;;;;;;6.97;53.04;100238.97;3144310;28;20407;-66
2022/11/26 00:52:33;;;;;;;5.43;2.38;;;;;;;6.98;53.12;100240.66;3143982;28;20228;-65
2022/11/26 00:54:06;;;;;;;6.70;2.85;;;;;;;6.98;53.07;100249.28;3143704;28;20052;-66
2022/11/26 00:55:40;;;;;;;7.07;2.50;;;;;;;6.97;52.86;100242.38;3144400;28;20068;-66
2022/11/26 00:57:12;;;;;;;11.23;2.65;;;;;;;6.97;53.12;100233.78;3144150;28;20150;-66
2022/11/26 00:58:45;;;;;;;5.35;2.80;;;;;;;6.68;53.11;100180.09;3143876;28;20052;-66
2022/11/26 01:00:19;;;;;;;6.05;2.30;;;;;;;6.97;53.00;100226.84;3143809;28;20434;-66
2022/11/26 01:01:51;;;;;;;9.48;3.03;;;;;;;6.99;53.07;100237.19;3144250;28;20113;-65
2022/11/26 01:03:23;;;;;;;7.82;2.50;;;;;;;7.03;53.19;100234.47;3144196;28;20056;-66
2022/11/26 01:04:55;;;;;;;9.10;2.92;;;;;;;7.05;53.04;100231.88;3143777;28;20593;-65
2022/11/26 01:06:35;;;;;;;10.77;3.40;;;;;;;7.09;53.15;100248.19;3144119;28;20056;-66
2022/11/26 01:08:17;;;;;;;11.95;3.15;;;;;;;7.10;52.86;100234.31;3144128;28;20121;-66
2022/11/26 01:09:49;;;;;;;10.60;2.92;;;;;;;6.89;53.09;100204.63;3144346;28;20055;-66
2022/11/26 01:11:23;;;;;;;12.10;2.90;;;;;;;7.09;52.85;100225.72;3143414;28;20049;-66
2022/11/26 01:12:54;;;;;;;;;;;;;;;7.04;53.00;100230.19;3140979;28;20192;-65
2022/11/26 01:14:26;;;;;;;4.32;2.03;;;;;;;7.03;52.93;100231.88;3144164;28;19986;-65
2022/11/26 01:15:59;;;;;;;4.53;2.47;;;;;;;7.07;52.96;100235.28;3143749;28;20498;-65
2022/11/26 01:17:31;;;;;;;6.90;2.63;;;;;;;7.06;52.92;100228.38;3143892;28;20082;-66
2022/11/26 01:19:03;;;;;;;4.47;2.47;;;;;;;7.07;52.78;100220.59;3144065;28;20130;-66
2022/11/26 01:20:35;;;;;;;5.63;3.00;;;;;;;7.13;52.78;100231.66;3144396;28;20098;-66
2022/11/26 01:22:18;;;;;;;7.55;2.60;;;;;;;7.16;52.75;100229.88;3143930;28;20063;-66
2022/11/26 01:23:52;;;;;;;5.07;2.60;;;;;;;7.15;52.69;100227.31;3143982;28;20079;-66
2022/11/26 01:25:25;;;;;;;3.67;2.42;;;;;;;7.15;52.71;100224.72;3143694;28;20083;-65
2022/11/26 01:26:57;;;;;;;;;;;;;;;7.10;52.64;100229.16;3144829;28;20106;-65
2022/11/26 01:28:28;;;;;;;5.45;2.58;;;;;;;7.11;52.81;100230.88;3143349;28;19927;-65
2022/11/26 01:29:59;;;;;;;6.60;3.28;;;;;;;7.12;52.65;100233.41;3143667;28;20116;-66
2022/11/26 01:31:32;;;;;;;5.00;2.63;;;;;;;7.15;52.56;100237.66;3144012;28;20117;-66
2022/11/26 01:33:04;;;;;;;8.40;3.40;;;;;;;7.17;52.56;100230.72;3144020;28;20503;-65
2022/11/26 01:34:35;;;;;;;5.75;2.72;;;;;;;7.18;52.48;100232.41;3143627;28;20040;-65
2022/11/26 01:36:19;;;;;;;7.75;2.90;;;;;;;7.00;52.63;100202.63;3143801;28;20110;-65
2022/11/26 01:37:51;;;;;;;8.05;2.67;;;;;;;7.10;52.59;100221.38;3131893;28;20059;-65
2022/11/26 01:39:24;;;;;;;5.00;2.65;;;;;;;7.14;52.43;100229.06;3143971;28;20099;-66
2022/11/26 01:41:14;;;;;;;6.25;2.88;;;;;;;7.15;52.49;100228.16;3143674;28;20084;-66
2022/11/26 01:42:52;;;;;;;5.40;2.83;;;;;;;7.18;52.58;100227.22;3144151;28;20097;-66
2022/11/26 01:44:26;;;;;;;4.72;2.60;;;;;;;7.18;52.60;100228.06;3143809;28;20045;-66
2022/11/26 01:45:58;;;;;;;4.55;2.40;;;;;;;7.17;52.51;100226.38;3143933;28;20090;-66
2022/11/26 01:47:30;;;;;;;5.50;2.42;;;;;;;7.17;52.72;100230.72;3144087;28;20067;-67
2022/11/26 01:49:18;;;;;;;4.90;2.22;;;;;;;7.14;52.57;100230.78;3143743;28;20052;-66
2022/11/26 01:50:57;;;;;;;6.97;2.55;;;;;;;7.11;52.88;100233.47;3142369;28;20082;-67
2022/11/26 01:52:29;;;;;;;6.80;2.50;;;;;;;7.11;52.81;100233.47;3143732;28;20102;-67
2022/11/26 01:54:02;;;;;;;4.78;2.25;;;;;;;6.81;52.98;100184.94;3144342;28;20044;-66
2022/11/26 01:55:37;;;;;;;6.03;2.25;;;;;;;7.06;52.91;100233.56;3146107;28;20488;-66
2022/11/26 01:57:13;;;;;;;4.85;2.42;;;;;;;7.06;52.91;100238.72;3145778;28;20486;-67
2022/11/26 01:58:48;;;;;;;5.65;2.60;;;;;;;7.05;52.93;100234.47;3137682;28;20097;-66
2022/11/26 02:00:20;;;;;;;4.93;2.53;;;;;;;7.03;53.01;100233.63;3146089;28;20060;-66
2022/11/26 02:01:53;;;;;;;4.90;2.22;;;;;;;7.01;52.90;100238.88;3146183;28;20097;-66
2022/11/26 02:03:29;;;;;;;3.88;2.25;;;;;;;6.94;52.79;100228.66;3145773;28;20106;-66
2022/11/26 02:05:09;;;;;;;4.07;2.35;;;;;;;6.76;52.82;100198.88;3145989;28;20055;-66
2022/11/26 02:06:42;;;;;;;4.25;2.60;;;;;;;6.92;52.98;100233.91;3134107;28;20045;-66
2022/11/26 02:08:13;;;;;;;5.13;2.80;;;;;;;6.89;52.95;100230.50;3145191;28;20098;-66
2022/11/26 02:09:47;;;;;;;5.95;3.10;;;;;;;6.88;52.98;100234.00;3146047;28;20098;-66
2022/11/26 02:11:21;;;;;;;4.78;2.65;;;;;;;6.89;53.11;100241.75;3146136;28;20512;-66
2022/11/26 02:12:53;;;;;;;4.10;2.22;;;;;;;6.86;53.13;100238.34;3145965;28;20069;-66
2022/11/26 02:14:28;;;;;;;10.27;2.05;;;;;;;6.76;53.02;100222.19;3146248;28;20114;-66
2022/11/26 02:16:08;;;;;;;9.55;2.53;;;;;;;6.80;52.99;100235.03;3146351;28;20049;-66
2022/11/26 02:17:45;;;;;;;8.10;2.67;;;;;;;6.74;53.12;100242.91;3145673;28;20135;-66
2022/11/26 02:19:44;;;;;;;8.18;2.65;;;;;;;6.74;53.15;100242.91;3145955;28;20053;-65
2022/11/26 02:21:20;;;;;;;6.78;2.00;;;;;;;6.67;53.32;100248.28;3145701;28;20513;-65
2022/11/26 02:23:14;;;;;;;12.45;3.30;;;;;;;6.67;53.34;100248.28;3146188;28;20045;-65
2022/11/26 02:24:50;;;;;;;8.43;2.75;;;;;;;6.64;53.28;100245.75;3145880;28;20055;-65
2022/11/26 02:27:00;;;;;;;13.82;3.35;;;;;;;6.61;53.32;100246.66;3145795;28;20052;-66
2022/11/26 02:28:54;;;;;;;8.95;2.47;;;;;;;6.41;53.31;100213.44;3145714;28;20045;-65
2022/11/26 02:30:31;;;;;;;9.30;2.67;;;;;;;6.56;53.44;100246.75;3133277;28;20804;-65
2022/11/26 02:32:08;;;;;;;6.68;2.70;;;;;;;6.56;53.41;100257.09;3145919;28;20078;-67
2022/11/26 02:33:48;;;;;;;8.70;2.45;;;;;;;6.55;53.38;100252.81;3145713;28;20048;-66
2022/11/26 02:35:25;;;;;;;4.47;2.40;;;;;;;6.56;53.58;100256.25;3145287;28;20197;-66
2022/11/26 02:37:01;;;;;;;4.45;2.30;;;;;;;6.54;53.60;100255.47;3145876;28;20049;-66
2022/11/26 02:38:36;;;;;;;7.53;2.28;;;;;;;6.08;53.67;100179.66;3146073;28;20052;-66
2022/11/26 02:40:10;;;;;;;4.68;2.80;;;;;;;6.44;53.87;100246.19;3145481;28;20076;-66
2022/11/26 02:41:43;;;;;;;7.53;2.40;;;;;;;6.17;53.75;100216.56;3145821;28;20044;-66
2022/11/26 02:43:15;;;;;;;;;;;;;;;6.32;53.98;100255.88;3142183;28;20056;-66
2022/11/26 02:44:47;;;;;;;4.28;2.38;;;;;;;6.29;54.26;100255.09;3146009;28;19978;-66
2022/11/26 02:46:21;;;;;;;6.18;2.70;;;;;;;6.26;54.36;100245.66;3145545;28;20060;-65
2022/11/26 02:47:57;;;;;;;8.02;2.35;;;;;;;6.28;54.33;100259.44;3145879;28;20048;-65
2022/11/26 02:49:31;;;;;;;4.65;2.42;;;;;;;6.12;54.38;100227.88;3145552;28;20193;-66
2022/11/26 02:51:08;;;;;;;8.52;2.38;;;;;;;6.18;54.42;100242.38;3145440;28;20056;-65
2022/11/26 02:52:41;;;;;;;5.30;2.70;;;;;;;6.23;54.45;100255.22;3145732;28;20045;-65
2022/11/26 02:54:14;;;;;;;5.47;2.63;;;;;;;6.21;54.52;100259.56;3133355;28;20477;-65
2022/11/26 02:55:49;;;;;;;4.13;2.50;;;;;;;6.20;54.54;100260.47;3144077;28;20041;-66
2022/11/26 02:57:24;;;;;;;5.53;2.83;;;;;;;6.15;54.72;100256.25;3145026;28;20532;-65
2022/11/26 02:58:58;;;;;;;6.82;3.08;;;;;;;6.13;54.64;100264.91;3145266;28;20483;-65
2022/11/26 03:00:31;;;;;;;4.65;2.50;;;;;;;6.12;54.68;100265.78;3145531;28;20049;-66
2022/11/26 03:02:09;;;;;;;5.00;2.55;;;;;;;6.11;54.73;100272.69;3145506;28;20094;-66
2022/11/26 03:03:47;;;;;;;6.95;2.83;;;;;;;6.09;54.79;100269.31;3144604;28;20052;-66
2022/11/26 03:05:20;;;;;;;4.88;2.92;;;;;;;6.07;54.76;100263.28;3144964;28;20594;-66
2022/11/26 03:06:53;;;;;;;7.15;3.50;;;;;;;5.92;54.75;100254.06;3145093;28;20044;-66
2022/11/26 03:08:25;;;;;;;6.10;2.33;;;;;;;5.56;54.45;100203.91;3144833;28;20132;-65
2022/11/26 03:10:00;;;;;;;6.80;3.38;;;;;;;6.00;54.49;100272.03;3145574;28;20051;-65
2022/11/26 03:11:32;;;;;;;5.97;3.20;;;;;;;5.95;54.67;100271.28;3145176;28;20109;-65
2022/11/26 03:13:04;;;;;;;7.28;2.90;;;;;;;5.81;54.74;100258.56;3145275;28;20406;-65
2022/11/26 03:14:36;;;;;;;4.75;2.60;;;;;;;5.87;54.78;100284.31;3145107;28;20056;-65
2022/11/26 03:16:08;;;;;;;6.57;3.08;;;;;;;5.83;54.89;100282.66;3145396;28;20053;-65
2022/11/26 03:17:41;;;;;;;6.90;2.70;;;;;;;5.81;54.95;100278.41;3144860;28;20053;-65
2022/11/26 03:19:12;;;;;;;6.38;3.03;;;;;;;5.77;55.05;100276.72;3145342;28;20052;-65
2022/11/26 03:20:44;;;;;;;6.97;3.67;;;;;;;5.69;55.07;100274.31;3145478;28;20173;-66
2022/11/26 03:22:17;;;;;;;5.03;2.80;;;;;;;5.68;55.14;100272.63;3144883;28;20055;-66
2022/11/26 03:23:49;;;;;;;6.28;3.75;;;;;;;5.68;55.13;100290.69;3145269;28;20056;-66
2022/11/26 03:25:21;;;;;;;9.80;3.70;;;;;;;5.59;55.18;100277.91;3145398;28;20421;-65
2022/11/26 03:26:52;;;;;;;5.45;2.90;;;;;;;5.56;55.38;100293.47;3144854;28;20045;-66
2022/11/26 03:28:24;;;;;;;7.20;3.22;;;;;;;5.26;55.40;100246.59;3145048;28;20144;-66
2022/11/26 03:29:55;;;;;;;7.70;3.17;;;;;;;5.48;55.43;100294.47;3145347;28;20043;-65
2022/11/26 03:31:27;;;;;;;6.18;2.95;;;;;;;5.48;55.42;100296.19;3144706;28;20116;-65
2022/11/26 03:33:00;;;;;;;7.47;3.45;;;;;;;5.46;55.48;100301.38;3145237;28;20113;-65
2022/11/26 03:34:31;;;;;;;6.97;3.30;;;;;;;5.42;55.53;100302.31;3144475;28;20211;-65
2022/11/26 03:36:03;;;;;;;4.47;2.60;;;;;;;5.33;55.69;100297.28;3144851;28;20066;-65
2022/11/26 03:37:36;;;;;;;5.90;2.85;;;;;;;5.37;55.77;100308.41;3144837;28;20459;-65
2022/11/26 03:39:07;;;;;;;7.57;3.00;;;;;;;5.32;55.65;100312.78;3141485;28;20048;-65
2022/11/26 03:40:39;;;;;;;6.20;2.90;;;;;;;5.31;55.88;100317.13;3140214;28;20178;-65
2022/11/26 03:42:10;;;;;;;5.97;3.17;;;;;;;5.28;55.90;100324.06;3139907;28;20587;-66
2022/11/26 03:43:41;;;;;;;5.88;2.75;;;;;;;5.25;56.02;100328.38;3139560;28;20286;-65
2022/11/26 03:45:15;;;;;;;7.10;3.35;;;;;;;5.19;56.25;100327.63;3139784;28;20048;-65
2022/11/26 03:46:47;;;;;;;5.30;3.00;;;;;;;5.19;56.22;100338.81;3140094;28;20489;-65
2022/11/26 03:48:20;;;;;;;5.18;2.85;;;;;;;5.16;56.30;100331.09;3139666;28;20658;-65
2022/11/26 03:49:52;;;;;;;;;;;;;;;4.89;56.24;100308.28;3140386;28;20060;-66
2022/11/26 03:51:23;;;;;;;6.80;2.53;;;;;;;4.87;56.67;100315.19;3139457;28;19924;-66
2022/11/26 03:52:55;;;;;;;5.78;2.65;;;;;;;5.03;56.57;100339.91;3139558;28;20052;-65
2022/11/26 03:54:27;;;;;;;7.07;2.97;;;;;;;5.04;56.58;100339.03;3139774;28;20052;-66
2022/11/26 03:55:59;;;;;;;4.57;2.63;;;;;;;5.03;56.55;100347.66;3139907;28;20052;-66
2022/11/26 03:57:29;;;;;;;5.50;2.80;;;;;;;4.93;56.59;100331.41;3139168;28;20053;-65
2022/11/26 03:59:01;;;;;;;6.03;3.13;;;;;;;5.02;56.56;100348.50;3139821;28;20048;-65
2022/11/26 04:00:33;;;;;;;6.53;3.00;;;;;;;4.94;56.74;100345.16;3138925;28;20135;-65
2022/11/26 04:02:05;;;;;;;4.95;2.80;;;;;;;4.97;56.66;100353.75;3139393;28;20408;-65
2022/11/26 04:03:38;;;;;;;5.65;2.83;;;;;;;4.96;56.68;100356.34;3139353;28;20102;-65
2022/11/26 04:05:10;;;;;;;5.25;2.88;;;;;;;4.91;56.71;100355.53;3139488;28;20094;-66
2022/11/26 04:06:42;;;;;;;5.43;2.83;;;;;;;4.93;56.73;100362.38;3139325;28;20052;-66
2022/11/26 04:08:14;;;;;;;5.60;2.70;;;;;;;4.91;56.98;100364.16;3139504;28;20059;-65
2022/11/26 04:09:46;;;;;;;7.22;3.60;;;;;;;4.91;56.82;100371.03;3139517;28;20078;-66
2022/11/26 04:11:18;;;;;;;5.70;2.78;;;;;;;4.69;56.97;100330.03;3139409;28;20066;-65
2022/11/26 04:12:50;;;;;;;7.13;2.97;;;;;;;4.91;57.18;100371.91;3139438;28;20064;-65
2022/11/26 04:14:22;;;;;;;6.97;3.20;;;;;;;4.92;57.28;100373.59;3139132;28;20091;-65
2022/11/26 04:15:53;;;;;;;7.25;3.20;;;;;;;4.95;57.14;100377.88;3139002;28;20040;-65
2022/11/26 04:17:25;;;;;;;13.85;4.07;;;;;;;4.93;57.19;100364.13;3139130;28;20048;-65
2022/11/26 04:18:58;;;;;;;12.60;5.55;;;;;;;5.00;57.04;100381.25;3139437;28;20500;-65
2022/11/26 04:20:30;;;;;;;7.55;3.45;;;;;;;5.02;56.99;100376.91;3139350;28;20070;-65
2022/11/26 04:22:02;;;;;;;7.40;3.05;;;;;;;5.02;56.88;100379.50;3139329;28;20048;-66
2022/11/26 04:23:34;;;;;;;6.20;3.10;;;;;;;5.02;56.91;100382.06;3139354;28;20056;-66
2022/11/26 04:25:07;;;;;;;6.03;3.00;;;;;;;5.01;57.03;100370.91;3139064;28;20670;-66
2022/11/26 04:26:39;;;;;;;7.90;2.92;;;;;;;5.05;56.95;100383.75;3139235;28;20058;-66
2022/11/26 04:28:12;;;;;;;3.55;2.28;;;;;;;5.05;56.90;100378.59;3139101;28;20856;-65
2022/11/26 04:29:44;;;;;;;4.35;2.53;;;;;;;4.83;56.82;100345.34;3139011;28;20089;-66
2022/11/26 04:31:16;;;;;;;5.22;3.10;;;;;;;5.05;56.61;100387.19;3139262;28;20056;-65
2022/11/26 04:32:48;;;;;;;4.82;2.75;;;;;;;5.05;56.83;100389.78;3139274;28;20078;-66
2022/11/26 04:34:21;;;;;;;4.85;2.70;;;;;;;5.04;56.93;100388.06;3138846;28;20056;-65
2022/11/26 04:35:54;;;;;;;;;;;;;;;4.96;56.88;100390.75;3139296;28;20044;-66
2022/11/26 04:37:26;;;;;;;8.70;3.60;;;;;;;4.75;57.06;100357.47;3139234;28;19930;-65
2022/11/26 04:38:58;;;;;;;6.50;3.10;;;;;;;4.67;57.00;100344.66;3139136;28;20068;-65
2022/11/26 04:40:30;;;;;;;7.38;3.13;;;;;;;4.98;57.09;100395.91;3139485;28;20060;-65
2022/11/26 04:42:02;;;;;;;7.63;2.88;;;;;;;4.78;56.97;100363.44;3137087;28;20526;-66
2022/11/26 04:43:34;;;;;;;7.53;3.10;;;;;;;4.98;57.00;100401.91;3137643;28;20052;-66
2022/11/26 04:45:06;;;;;;;5.18;2.90;;;;;;;4.99;57.09;100405.34;3139180;28;20087;-66
2022/11/26 04:46:38;;;;;;;4.93;2.65;;;;;;;4.94;57.09;100394.22;3139184;28;20106;-66
2022/11/26 04:48:09;;;;;;;4.15;2.70;;;;;;;4.97;57.04;100400.22;3138784;28;20163;-66
2022/11/26 04:49:43;;;;;;;6.05;3.03;;;;;;;4.99;57.07;100402.75;3139335;28;20048;-66
2022/11/26 04:51:14;;;;;;;;;;;;;;;4.91;57.03;100402.88;3139448;28;20072;-66
2022/11/26 04:52:47;;;;;;;7.43;3.00;;;;;;;4.90;57.05;100411.47;3139020;28;19987;-66
2022/11/26 04:54:19;;;;;;;8.00;3.07;;;;;;;4.91;57.15;100408.03;3139162;28;20151;-65
2022/11/26 04:55:52;;;;;;;6.75;3.30;;;;;;;4.93;57.14;100410.59;3138716;28;20363;-66
2022/11/26 04:57:24;;;;;;;5.75;2.63;;;;;;;4.93;57.17;100421.75;3138341;28;20545;-66
2022/11/26 04:58:55;;;;;;;6.10;3.33;;;;;;;4.93;57.13;100418.31;3138994;28;20048;-65
2022/11/26 05:00:27;;;;;;;6.63;3.80;;;;;;;4.46;57.09;100335.44;3138587;28;20106;-65
2022/11/26 05:01:59;;;;;;;6.20;3.00;;;;;;;4.92;57.25;100417.47;3138922;28;20139;-65
2022/11/26 05:03:31;;;;;;;6.18;3.13;;;;;;;4.94;57.24;100417.44;3138704;28;20437;-65
2022/11/26 05:05:05;;;;;;;7.75;3.50;;;;;;;4.95;57.24;100424.34;3139082;28;20044;-65
2022/11/26 05:06:36;;;;;;;8.23;4.18;;;;;;;4.95;57.28;100426.91;3138902;28;20064;-65
2022/11/26 05:08:08;;;;;;;7.22;3.78;;;;;;;4.94;57.41;100428.66;3138803;28;20057;-66
2022/11/26 05:09:40;;;;;;;8.27;3.72;;;;;;;4.93;57.50;100437.25;3139077;28;20591;-64
2022/11/26 05:11:11;;;;;;;7.53;3.70;;;;;;;4.93;57.63;100436.38;3138686;28;20819;-65
2022/11/26 05:12:43;;;;;;;7.80;3.45;;;;;;;4.93;57.60;100450.16;3138970;28;20048;-65
2022/11/26 05:14:15;;;;;;;8.27;3.35;;;;;;;4.90;57.53;100441.59;3138944;28;20053;-65
2022/11/26 05:15:47;;;;;;;19.70;6.78;;;;;;;4.88;57.62;100438.16;3138506;28;20040;-66
2022/11/26 05:17:18;;;;;;;9.65;4.78;;;;;;;4.81;57.58;100429.66;3138903;28;20049;-65
2022/11/26 05:18:50;;;;;;;10.93;4.45;;;;;;;4.91;57.66;100451.91;3138920;28;20547;-65
2022/11/26 05:20:23;;;;;;;6.45;3.42;;;;;;;4.92;57.68;100458.78;3138670;28;20056;-66
2022/11/26 05:21:55;;;;;;;7.75;3.92;;;;;;;4.90;57.81;100457.91;3126769;28;20053;-65
2022/11/26 05:23:27;;;;;;;6.25;3.63;;;;;;;4.86;57.83;100452.84;3137888;28;20118;-67
2022/11/26 05:24:58;;;;;;;10.52;4.40;;;;;;;4.87;57.77;100451.94;3138506;28;20053;-65
2022/11/26 05:26:30;;;;;;;18.50;7.28;;;;;;;4.80;57.96;100443.44;3139026;28;21062;-65
2022/11/26 05:28:02;;;;;;;13.02;5.78;;;;;;;4.84;57.88;100457.16;3139065;28;20125;-66
2022/11/26 05:29:34;;;;;;;10.40;4.68;;;;;;;4.82;58.09;100456.28;3141943;28;20434;-65
2022/11/26 05:31:06;;;;;;;13.13;5.28;;;;;;;4.79;58.25;100450.31;3141816;28;20056;-65
2022/11/26 05:32:38;;;;;;;10.32;4.85;;;;;;;4.73;58.15;100449.50;3141730;28;20135;-65
2022/11/26 05:34:10;;;;;;;12.23;4.63;;;;;;;4.71;58.19;100459.88;3141333;28;20167;-65
2022/11/26 05:35:43;;;;;;;10.30;4.90;;;;;;;4.63;58.03;100450.50;3141283;28;20045;-65
2022/11/26 05:37:15;;;;;;;14.00;6.20;;;;;;;4.69;58.28;100460.75;3141456;28;20159;-65
2022/11/26 05:38:46;;;;;;;14.30;5.78;;;;;;;4.67;58.28;100457.31;3141619;28;20071;-65
2022/11/26 05:40:17;;;;;;;15.30;5.78;;;;;;;4.62;58.43;100452.22;3141297;28;20060;-66
2022/11/26 05:41:49;;;;;;;11.02;5.57;;;;;;;4.66;58.37;100458.19;3140939;28;20048;-65
2022/11/26 05:43:22;;;;;;;13.52;6.45;;;;;;;4.67;58.58;100465.06;3141393;28;20052;-65
2022/11/26 05:44:53;;;;;;;15.43;6.00;;;;;;;4.63;58.54;100453.06;3141651;28;20131;-66
2022/11/26 05:46:25;;;;;;;13.82;5.70;;;;;;;4.66;58.62;100461.63;3140914;28;20690;-64
2022/11/26 05:47:57;;;;;;;13.07;5.10;;;;;;;4.63;58.64;100458.22;3141268;28;20059;-65
2022/11/26 05:49:29;;;;;;;16.00;4.80;;;;;;;4.67;58.61;100465.91;3141306;28;20064;-65
2022/11/26 05:51:02;;;;;;;7.95;4.22;;;;;;;4.69;58.56;100464.19;3141030;28;20059;-65
2022/11/26 05:52:34;;;;;;;11.68;4.05;;;;;;;4.64;58.62;100457.34;3140694;28;20084;-66
2022/11/26 05:54:06;;;;;;;8.15;4.30;;;;;;;4.78;58.46;100469.22;3141270;28;20057;-65
2022/11/26 05:55:38;;;;;;;8.43;4.13;;;;;;;4.92;58.47;100463.94;3140960;28;20139;-66
2022/11/26 05:57:10;;;;;;;7.40;3.47;;;;;;;5.09;58.28;100476.66;3140963;28;20076;-66
2022/11/26 05:58:42;;;;;;;8.07;4.40;;;;;;;4.81;58.04;100395.25;3141088;28;20545;-66
2022/11/26 06:00:15;;;;;;;11.80;4.03;;;;;;;5.45;57.73;100477.06;3140552;28;20048;-66
2022/11/26 06:01:46;;;;;;;8.63;4.18;;;;;;;5.60;57.41;100471.69;3141542;28;20510;-66
2022/11/26 06:03:18;;;;;;;9.95;4.25;;;;;;;5.77;57.04;100470.56;3140896;28;20048;-66
2022/11/26 06:04:50;;;;;;;10.50;3.97;;;;;;;5.97;56.76;100476.31;3140743;28;20079;-65
2022/11/26 06:06:23;;;;;;;13.25;4.10;;;;;;;6.12;56.53;100480.41;3141226;28;20052;-65
2022/11/26 06:07:55;;;;;;;10.10;4.20;;;;;;;6.34;56.15;100480.91;3141209;28;20056;-65
2022/11/26 06:09:27;;;;;;;8.77;3.65;;;;;;;6.46;55.74;100474.69;3140893;28;20159;-66
2022/11/26 06:10:59;;;;;;;9.15;4.10;;;;;;;6.63;55.42;100483.00;3141189;28;20118;-65
2022/11/26 06:12:31;;;;;;;9.40;4.07;;;;;;;6.77;55.12;100481.03;3140627;28;20575;-65
2022/11/26 06:14:03;;;;;;;9.05;3.97;;;;;;;6.70;54.78;100439.72;3140714;28;20401;-65
2022/11/26 06:15:35;;;;;;;8.80;4.60;;;;;;;6.99;54.42;100470.25;3140962;28;20171;-65
2022/11/26 06:17:07;;;;;;;11.57;4.93;;;;;;;7.17;54.12;100479.38;3140688;28;20246;-65
2022/11/26 06:18:39;;;;;;;10.52;3.78;;;;;;;7.26;53.97;100494.72;3140908;28;20053;-64
2022/11/26 06:20:12;;;;;;;12.30;4.90;;;;;;;7.41;53.67;100486.63;3140965;28;20139;-65
2022/11/26 06:21:46;;;;;;;11.05;4.25;;;;;;;7.51;53.38;100495.94;3140543;28;20109;-66
2022/11/26 06:23:17;;;;;;;;;;;;;;;7.60;53.09;100494.88;3140917;28;20056;-66
2022/11/26 06:24:49;;;;;;;7.88;4.10;;;;;;;7.69;52.96;100497.28;3141075;28;20372;-66
2022/11/26 06:26:21;;;;;;;6.55;3.42;;;;;;;7.78;52.92;100497.94;3140618;28;20075;-65
2022/11/26 06:27:53;;;;;;;8.90;4.38;;;;;;;7.91;52.52;100495.03;3140486;28;20044;-66
2022/11/26 06:29:25;;;;;;;9.60;4.20;;;;;;;7.91;52.29;100476.88;3140471;28;20051;-65
2022/11/26 06:30:57;;;;;;;14.10;4.68;;;;;;;8.15;52.04;100495.34;3140643;28;20076;-65
2022/11/26 06:32:29;;;;;;;11.88;4.80;;;;;;;8.30;51.87;100507.94;3140426;28;20113;-65
2022/11/26 06:34:01;;;;;;;11.23;4.50;;;;;;;8.39;51.29;100486.13;3140387;28;20223;-65
2022/11/26 06:35:34;;;;;;;9.65;4.47;;;;;;;8.69;51.09;100507.00;3139913;28;20106;-65
2022/11/26 06:37:07;;;;;;;12.23;5.00;;;;;;;8.89;50.61;100508.19;3140729;28;20422;-65
2022/11/26 06:38:39;;;;;;;8.70;3.85;;;;;;;9.14;50.04;100504.94;3140591;28;20151;-65
2022/11/26 06:40:17;;;;;;;10.05;4.68;;;;;;;9.43;49.14;100508.44;3139963;28;20355;-65
2022/11/26 06:41:49;;;;;;;10.60;5.28;;;;;;;9.71;48.86;100503.28;3140487;28;20044;-65
2022/11/26 06:43:21;;;;;;;9.75;5.40;;;;;;;10.02;47.88;100497.97;3140314;28;20543;-65
2022/11/26 06:44:53;;;;;;;10.60;5.65;;;;;;;10.29;47.10;100470.22;3136642;28;20059;-65
2022/11/26 06:46:25;;;;;;;10.23;4.47;;;;;;;10.87;46.44;100504.69;3140574;28;20212;-65
2022/11/26 06:47:57;;;;;;;12.02;4.90;;;;;;;11.25;45.12;100506.84;3140408;28;20120;-65
2022/11/26 06:49:29;;;;;;;12.73;5.25;;;;;;;11.49;44.65;100503.31;3139856;28;20066;-64
2022/11/26 06:51:03;;;;;;;11.48;5.50;;;;;;;11.86;44.08;100508.91;3140652;28;20056;-66
2022/11/26 06:52:37;;;;;;;15.80;5.35;;;;;;;12.18;43.40;100498.03;3140110;28;20056;-65
2022/11/26 06:54:09;;;;;;;;;;;;;;;12.60;43.49;100504.16;3141093;28;20084;-65
2022/11/26 06:55:41;;;;;;;11.18;5.03;;;;;;;12.87;42.06;100508.22;3140598;28;19928;-66
2022/11/26 06:57:13;;;;;;;10.82;4.95;;;;;;;13.09;41.74;100502.88;3139960;28;20102;-66
2022/11/26 06:58:45;;;;;;;11.48;4.82;;;;;;;13.34;41.10;100501.81;3140489;28;20121;-66
2022/11/26 07:00:17;;;;;;;14.55;4.88;;;;;;;13.58;40.87;100499.84;3140387;28;20074;-66
2022/11/26 07:01:49;;;;;;;11.43;4.60;;;;;;;13.89;40.26;100507.94;3140194;28;20060;-66
2022/11/26 07:03:22;;;;;;;16.98;4.90;;;;;;;14.15;39.66;100507.63;3140393;28;20372;-66
2022/11/26 07:04:54;;;;;;;11.52;4.78;;;;;;;14.41;39.27;100501.09;3140144;28;20551;-65
2022/11/26 07:06:28;;;;;;;13.80;5.40;;;;;;;14.55;38.66;100504.78;3140066;28;20523;-66
2022/11/26 07:08:01;;;;;;;10.35;5.00;;;;;;;14.77;38.44;100508.91;3140583;28;20134;-66
2022/11/26 07:09:33;;;;;;;11.80;4.50;;;;;;;15.05;38.04;100503.06;3140278;28;20060;-66
2022/11/26 07:11:05;;;;;;;12.75;4.32;;;;;;;15.39;37.70;100512.63;3140051;28;20095;-65
2022/11/26 07:12:37;;;;;;;11.40;5.13;;;;;;;15.66;37.29;100515.53;3140651;28;20056;-66
2022/11/26 07:14:09;;;;;;;18.98;6.13;;;;;;;15.93;36.78;100502.66;3140409;28;20553;-66
2022/11/26 07:15:41;;;;;;;18.13;5.18;;;;;;;16.11;36.24;100503.41;3139913;28;20474;-66
2022/11/26 07:17:13;;;;;;;10.95;4.57;;;;;;;16.34;35.93;100502.09;3139707;28;20579;-65
2022/11/26 07:18:48;;;;;;;13.50;4.45;;;;;;;16.62;35.80;100511.00;3140231;28;20056;-66